createdAt,value
2017-07-11T00:00:13.130Z,20.28
2017-07-11T00:01:12.948Z,20.34
2017-07-11T00:02:12.986Z,20.25
2017-07-11T00:03:13.030Z,20.24
2017-07-11T00:04:13.069Z,20.21
2017-07-11T00:05:13.109Z,20.3
2017-07-11T00:06:13.151Z,20.27
2017-07-11T00:07:13.183Z,20.24
2017-07-11T00:08:13.228Z,20.33
2017-07-11T00:09:13.271Z,20.3
2017-07-11T00:10:13.310Z,20.27
2017-07-11T00:11:13.354Z,20.33
2017-07-11T00:12:13.392Z,20.27
2017-07-11T00:13:13.424Z,20.31
2017-07-11T00:14:13.471Z,20.35
2017-07-11T00:15:13.512Z,20.28
2017-07-11T00:16:13.553Z,20.33
2017-07-11T00:17:13.592Z,20.27
2017-07-11T00:18:13.626Z,20.25
2017-07-11T00:19:13.674Z,20.31
2017-07-11T00:20:13.707Z,20.3
2017-07-11T00:21:13.746Z,20.27
2017-07-11T00:22:13.787Z,20.3
2017-07-11T00:23:13.832Z,20.27
2017-07-11T00:24:13.878Z,20.25
2017-07-11T00:25:13.918Z,20.27
2017-07-11T00:26:13.954Z,20.28
2017-07-11T00:27:13.995Z,20.25
2017-07-11T00:28:14.028Z,20.28
2017-07-11T00:29:14.075Z,20.23
2017-07-11T00:30:14.116Z,20.16
2017-07-11T00:31:14.150Z,20.25
2017-07-11T00:32:14.196Z,20.27
2017-07-11T00:33:14.230Z,20.28
2017-07-11T00:34:14.271Z,20.27
2017-07-11T00:35:14.317Z,20.23
2017-07-11T00:36:14.355Z,20.28
2017-07-11T00:37:14.398Z,20.25
2017-07-11T00:38:14.433Z,20.34
2017-07-11T00:39:14.476Z,20.33
2017-07-11T00:40:14.520Z,20.34
2017-07-11T00:41:14.554Z,20.35
2017-07-11T00:42:14.592Z,20.28
2017-07-11T00:43:14.636Z,20.3
2017-07-11T00:44:14.672Z,20.28
2017-07-11T00:45:14.719Z,20.28
2017-07-11T00:46:14.754Z,20.25
2017-07-11T00:47:14.790Z,20.31
2017-07-11T00:48:14.839Z,20.31
2017-07-11T00:49:14.878Z,20.34
2017-07-11T00:50:14.921Z,20.28
2017-07-11T00:51:14.952Z,20.31
2017-07-11T00:52:15.000Z,20.28
2017-07-11T00:53:15.043Z,20.24
2017-07-11T00:54:15.083Z,20.34
2017-07-11T00:55:15.113Z,20.34
2017-07-11T00:56:15.154Z,20.33
2017-07-11T00:57:15.205Z,20.34
2017-07-11T00:58:15.244Z,20.35
2017-07-11T00:59:15.282Z,20.33
2017-07-11T01:00:15.322Z,20.34
2017-07-11T01:01:15.363Z,20.34
2017-07-11T01:02:15.395Z,20.31
2017-07-11T01:03:15.445Z,20.3
2017-07-11T01:04:15.534Z,20.38
2017-07-11T01:05:15.526Z,20.38
2017-07-11T01:06:15.561Z,20.27
2017-07-11T01:07:15.605Z,20.35
2017-07-11T01:08:15.644Z,20.3
2017-07-11T01:09:15.685Z,20.27
2017-07-11T01:10:15.725Z,20.27
2017-07-11T01:11:15.762Z,20.27
2017-07-11T01:12:15.803Z,20.35
2017-07-11T01:13:15.847Z,20.3
2017-07-11T01:14:15.887Z,20.28
2017-07-11T01:15:15.929Z,20.28
2017-07-11T01:16:15.963Z,20.24
2017-07-11T01:17:16.009Z,20.27
2017-07-11T01:18:16.048Z,20.28
2017-07-11T01:19:16.084Z,20.24
2017-07-11T01:20:16.120Z,20.33
2017-07-11T01:21:16.161Z,20.31
2017-07-11T01:22:16.207Z,20.23
2017-07-11T01:23:16.240Z,20.3
2017-07-11T01:24:16.280Z,20.28
2017-07-11T01:25:16.320Z,20.33
2017-07-11T01:26:16.366Z,20.33
2017-07-11T01:27:16.403Z,20.31
2017-07-11T01:28:16.447Z,20.28
2017-07-11T01:29:16.487Z,20.31
2017-07-11T01:30:16.524Z,20.3
2017-07-11T01:31:16.562Z,20.25
2017-07-11T01:32:16.610Z,20.2
2017-07-11T01:33:16.652Z,20.25
2017-07-11T01:34:16.690Z,20.16
2017-07-11T01:35:17.047Z,20.25
2017-07-11T01:36:16.763Z,20.27
2017-07-11T01:37:16.810Z,20.15
2017-07-11T01:38:16.844Z,20.12
2017-07-11T01:39:16.893Z,20.21
2017-07-11T01:40:16.929Z,20.13
2017-07-11T01:41:16.969Z,20.24
2017-07-11T01:42:17.004Z,20.16
2017-07-11T01:43:17.048Z,20.18
2017-07-11T01:44:17.082Z,20.12
2017-07-11T01:45:17.125Z,20.12
2017-07-11T01:46:17.169Z,20.21
2017-07-11T01:47:17.209Z,20.08
2017-07-11T01:48:17.243Z,20.18
2017-07-11T01:49:17.291Z,20.18
2017-07-11T01:50:17.324Z,20.05
2017-07-11T01:51:17.591Z,20.03
2017-07-11T01:52:17.404Z,20.1
2017-07-11T01:53:17.450Z,20.1
2017-07-11T01:54:17.492Z,20.15
2017-07-11T01:55:17.530Z,20.05
2017-07-11T01:56:17.572Z,20.13
2017-07-11T01:57:17.609Z,20.12
2017-07-11T01:58:17.650Z,20.13
2017-07-11T01:59:17.685Z,20.09
2017-07-11T02:00:17.734Z,20.09
2017-07-11T02:01:17.771Z,20
2017-07-11T02:02:17.812Z,20.13
2017-07-11T02:03:17.849Z,20.06
2017-07-11T02:04:17.893Z,20.21
2017-07-11T02:05:17.934Z,20.08
2017-07-11T02:06:17.974Z,20.05
2017-07-11T02:07:18.013Z,20.12
2017-07-11T02:08:18.053Z,20.05
2017-07-11T02:09:18.088Z,20.02
2017-07-11T02:10:18.131Z,20.03
2017-07-11T02:11:18.173Z,20.02
2017-07-11T02:12:18.209Z,20
2017-07-11T02:13:18.252Z,20.03
2017-07-11T02:14:18.285Z,20.02
2017-07-11T02:15:18.329Z,20.08
2017-07-11T02:16:18.690Z,20.03
2017-07-11T02:17:18.405Z,20.03
2017-07-11T02:18:18.454Z,20.03
2017-07-11T02:19:18.485Z,20.06
2017-07-11T02:20:18.528Z,20.05
2017-07-11T02:21:18.572Z,20.03
2017-07-11T02:22:18.615Z,20
2017-07-11T02:23:18.655Z,20.05
2017-07-11T02:24:18.693Z,20
2017-07-11T02:25:18.737Z,20.02
2017-07-11T02:26:18.772Z,20.05
2017-07-11T02:27:18.866Z,20.06
2017-07-11T02:28:18.850Z,20.05
2017-07-11T02:29:18.897Z,20.03
2017-07-11T02:30:19.245Z,20
2017-07-11T02:31:18.973Z,20.06
2017-07-11T02:32:19.008Z,20.05
2017-07-11T02:33:19.057Z,20.05
2017-07-11T02:34:19.093Z,20.03
2017-07-11T02:35:19.135Z,20.09
2017-07-11T02:36:19.175Z,20.05
2017-07-11T02:37:19.217Z,20.06
2017-07-11T02:38:19.250Z,20.03
2017-07-11T02:39:19.296Z,20
2017-07-11T02:40:19.327Z,20.09
2017-07-11T02:41:19.374Z,20.2
2017-07-11T02:42:19.415Z,20.12
2017-07-11T02:43:19.456Z,20.13
2017-07-11T02:44:19.488Z,20.16
2017-07-11T02:45:19.851Z,20.16
2017-07-11T02:46:19.576Z,20.18
2017-07-11T02:47:19.609Z,20.15
2017-07-11T02:48:19.656Z,20.21
2017-07-11T02:49:19.691Z,20.2
2017-07-11T02:50:19.736Z,20.2
2017-07-11T02:51:19.777Z,20.25
2017-07-11T02:52:19.818Z,20.23
2017-07-11T02:53:19.852Z,20.3
2017-07-11T02:54:19.901Z,20.3
2017-07-11T02:55:19.931Z,20.31
2017-07-11T02:56:19.970Z,20.3
2017-07-11T02:57:20.012Z,20.28
2017-07-11T02:58:20.051Z,20.25
2017-07-11T02:59:20.089Z,20.34
2017-07-11T03:00:20.137Z,20.34
2017-07-11T03:01:20.172Z,20.41
2017-07-11T03:02:20.221Z,20.39
2017-07-11T03:03:20.258Z,20.38
2017-07-11T03:04:20.298Z,20.46
2017-07-11T03:05:20.341Z,20.39
2017-07-11T03:06:20.380Z,20.46
2017-07-11T03:07:20.412Z,20.42
2017-07-11T03:08:20.452Z,20.42
2017-07-11T03:09:20.501Z,20.47
2017-07-11T03:10:20.541Z,20.47
2017-07-11T03:11:20.575Z,20.49
2017-07-11T03:12:20.617Z,20.49
2017-07-11T03:13:20.663Z,20.43
2017-07-11T03:14:20.700Z,20.46
2017-07-11T03:15:20.735Z,20.43
2017-07-11T03:16:20.782Z,20.41
2017-07-11T03:17:20.814Z,20.35
2017-07-11T03:18:20.862Z,20.42
2017-07-11T03:19:20.896Z,20.42
2017-07-11T03:20:20.943Z,20.39
2017-07-11T03:21:20.981Z,20.42
2017-07-11T03:22:21.013Z,20.42
2017-07-11T03:23:21.057Z,20.47
2017-07-11T03:24:21.106Z,20.47
2017-07-11T03:25:21.142Z,20.41
2017-07-11T03:26:21.177Z,20.42
2017-07-11T03:27:21.223Z,20.42
2017-07-11T03:28:21.264Z,20.43
2017-07-11T03:29:21.298Z,20.49
2017-07-11T03:30:21.347Z,20.47
2017-07-11T03:31:21.386Z,20.43
2017-07-11T03:32:21.427Z,20.43
2017-07-11T03:33:21.460Z,20.47
2017-07-11T03:34:21.501Z,20.54
2017-07-11T03:35:21.548Z,20.51
2017-07-11T03:36:21.580Z,20.58
2017-07-11T03:37:21.619Z,20.61
2017-07-11T03:38:21.668Z,20.61
2017-07-11T03:39:21.703Z,20.51
2017-07-11T03:40:21.747Z,20.54
2017-07-11T03:41:21.781Z,20.58
2017-07-11T03:42:21.828Z,20.59
2017-07-11T03:43:21.867Z,20.56
2017-07-11T03:44:21.902Z,20.58
2017-07-11T03:45:21.950Z,20.59
2017-07-11T03:46:21.988Z,20.59
2017-07-11T03:47:22.024Z,20.62
2017-07-11T03:48:22.069Z,20.61
2017-07-11T03:49:22.105Z,20.59
2017-07-11T03:50:22.152Z,20.61
2017-07-11T03:51:22.181Z,20.65
2017-07-11T03:52:22.229Z,20.68
2017-07-11T03:53:22.265Z,20.66
2017-07-11T03:54:22.311Z,20.69
2017-07-11T03:55:22.345Z,20.76
2017-07-11T03:56:22.393Z,20.69
2017-07-11T03:57:22.441Z,20.74
2017-07-11T03:58:22.468Z,20.71
2017-07-11T03:59:22.514Z,20.72
2017-07-11T04:00:22.548Z,20.69
2017-07-11T04:01:22.589Z,20.68
2017-07-11T04:02:22.637Z,20.68
2017-07-11T04:03:22.670Z,20.68
2017-07-11T04:04:22.707Z,20.65
2017-07-11T04:05:22.757Z,20.56
2017-07-11T04:06:22.796Z,20.68
2017-07-11T04:07:22.837Z,20.56
2017-07-11T04:08:22.872Z,20.65
2017-07-11T04:09:22.920Z,20.59
2017-07-11T04:10:22.962Z,20.59
2017-07-11T04:11:22.998Z,20.56
2017-07-11T04:12:23.032Z,20.66
2017-07-11T04:13:23.078Z,20.71
2017-07-11T04:14:23.126Z,20.68
2017-07-11T04:15:23.164Z,20.72
2017-07-11T04:16:23.199Z,20.62
2017-07-11T04:17:23.234Z,20.69
2017-07-11T04:18:23.283Z,20.74
2017-07-11T04:19:23.331Z,20.72
2017-07-11T04:20:23.363Z,20.65
2017-07-11T04:21:23.397Z,20.76
2017-07-11T04:22:23.437Z,20.72
2017-07-11T04:23:23.481Z,20.69
2017-07-11T04:24:23.519Z,20.68
2017-07-11T04:25:23.564Z,20.65
2017-07-11T04:26:23.597Z,20.71
2017-07-11T04:27:23.647Z,20.69
2017-07-11T04:28:23.679Z,20.65
2017-07-11T04:29:23.720Z,20.69
2017-07-11T04:30:23.765Z,20.74
2017-07-11T04:31:23.817Z,20.74
2017-07-11T04:32:23.854Z,20.8
2017-07-11T04:33:23.882Z,20.79
2017-07-11T04:34:23.931Z,20.79
2017-07-11T04:35:23.962Z,20.79
2017-07-11T04:36:24.011Z,20.8
2017-07-11T04:37:24.042Z,20.76
2017-07-11T04:38:24.090Z,20.77
2017-07-11T04:39:24.128Z,20.79
2017-07-11T04:40:24.170Z,20.76
2017-07-11T04:41:24.201Z,20.76
2017-07-11T04:42:24.250Z,20.76
2017-07-11T04:43:24.282Z,20.71
2017-07-11T04:44:24.327Z,20.72
2017-07-11T04:45:24.371Z,20.68
2017-07-11T04:46:24.413Z,20.74
2017-07-11T04:47:24.453Z,20.71
2017-07-11T04:48:24.486Z,20.76
2017-07-11T04:49:24.533Z,20.77
2017-07-11T04:50:24.572Z,20.76
2017-07-11T04:51:24.616Z,20.84
2017-07-11T04:52:24.651Z,20.84
2017-07-11T04:53:24.698Z,20.86
2017-07-11T04:54:24.730Z,20.86
2017-07-11T04:55:24.777Z,20.86
2017-07-11T04:56:24.821Z,20.83
2017-07-11T04:57:24.858Z,20.79
2017-07-11T04:58:24.895Z,20.76
2017-07-11T04:59:24.939Z,20.86
2017-07-11T05:00:24.979Z,20.89
2017-07-11T05:01:25.015Z,20.9
2017-07-11T05:02:25.062Z,20.81
2017-07-11T05:03:25.095Z,20.87
2017-07-11T05:04:25.137Z,20.89
2017-07-11T05:05:25.176Z,20.86
2017-07-11T05:06:25.223Z,20.86
2017-07-11T05:07:25.257Z,20.83
2017-07-11T05:08:25.297Z,20.84
2017-07-11T05:09:25.345Z,20.89
2017-07-11T05:10:25.379Z,20.89
2017-07-11T05:11:25.427Z,20.89
2017-07-11T05:12:25.480Z,20.83
2017-07-11T05:13:25.502Z,20.87
2017-07-11T05:14:25.545Z,20.8
2017-07-11T05:15:25.589Z,20.81
2017-07-11T05:16:25.624Z,20.83
2017-07-11T05:17:25.669Z,20.91
2017-07-11T05:18:25.718Z,20.86
2017-07-11T05:19:25.746Z,20.83
2017-07-11T05:20:25.790Z,20.84
2017-07-11T05:21:25.827Z,20.8
2017-07-11T05:22:26.187Z,20.87
2017-07-11T05:23:25.911Z,20.87
2017-07-11T05:24:25.947Z,20.79
2017-07-11T05:25:25.988Z,20.89
2017-07-11T05:26:26.026Z,20.76
2017-07-11T05:27:26.073Z,20.89
2017-07-11T05:28:26.114Z,20.83
2017-07-11T05:29:26.150Z,20.86
2017-07-11T05:30:26.190Z,20.77
2017-07-11T05:31:26.240Z,20.86
2017-07-11T05:32:26.270Z,20.87
2017-07-11T05:33:26.318Z,20.84
2017-07-11T05:34:26.353Z,20.84
2017-07-11T05:35:26.399Z,20.83
2017-07-11T05:36:26.439Z,20.77
2017-07-11T05:37:26.476Z,20.9
2017-07-11T05:38:26.516Z,20.87
2017-07-11T05:39:26.569Z,20.86
2017-07-11T05:40:26.593Z,20.8
2017-07-11T05:41:26.643Z,20.79
2017-07-11T05:42:26.687Z,20.83
2017-07-11T05:43:26.722Z,20.81
2017-07-11T05:44:26.759Z,20.8
2017-07-11T05:45:26.800Z,20.86
2017-07-11T05:46:26.837Z,20.84
2017-07-11T05:47:26.905Z,20.86
2017-07-11T05:48:26.929Z,20.86
2017-07-11T05:49:26.959Z,20.81
2017-07-11T05:50:27.001Z,20.84
2017-07-11T05:51:27.039Z,20.77
2017-07-11T05:52:27.080Z,20.74
2017-07-11T05:53:27.464Z,20.84
2017-07-11T05:54:27.162Z,20.84
2017-07-11T05:55:27.206Z,20.83
2017-07-11T05:56:27.243Z,20.86
2017-07-11T05:57:27.289Z,20.84
2017-07-11T05:58:27.471Z,20.8
2017-07-11T05:59:27.364Z,20.84
2017-07-11T06:00:27.406Z,20.87
2017-07-11T06:01:27.446Z,20.86
2017-07-11T06:02:27.493Z,20.84
2017-07-11T06:03:27.526Z,20.81
2017-07-11T06:04:27.573Z,20.84
2017-07-11T06:05:27.612Z,20.79
2017-07-11T06:06:27.656Z,20.87
2017-07-11T06:07:27.694Z,20.72
2017-07-11T06:08:27.729Z,20.84
2017-07-11T06:09:27.784Z,20.83
2017-07-11T06:10:27.813Z,20.86
2017-07-11T06:11:27.853Z,20.86
2017-07-11T06:12:27.900Z,20.86
2017-07-11T06:13:27.935Z,20.83
2017-07-11T06:14:27.979Z,20.86
2017-07-11T06:15:28.034Z,20.74
2017-07-11T06:16:28.062Z,20.77
2017-07-11T06:17:28.101Z,20.74
2017-07-11T06:18:28.133Z,20.77
2017-07-11T06:19:28.183Z,20.74
2017-07-11T06:20:28.215Z,20.76
2017-07-11T06:21:28.254Z,20.8
2017-07-11T06:22:28.308Z,20.83
2017-07-11T06:23:28.347Z,20.76
2017-07-11T06:24:28.384Z,20.71
2017-07-11T06:25:28.424Z,20.76
2017-07-11T06:26:28.458Z,20.77
2017-07-11T06:27:28.510Z,20.74
2017-07-11T06:28:28.536Z,20.81
2017-07-11T06:29:28.583Z,20.74
2017-07-11T06:30:28.629Z,20.83
2017-07-11T06:31:28.667Z,20.8
2017-07-11T06:32:28.706Z,20.74
2017-07-11T06:33:28.737Z,20.81
2017-07-11T06:34:28.787Z,20.81
2017-07-11T06:35:28.828Z,20.76
2017-07-11T06:36:28.868Z,20.81
2017-07-11T06:37:28.905Z,20.86
2017-07-11T06:38:29.009Z,20.86
2017-07-11T06:39:28.985Z,20.83
2017-07-11T06:40:29.031Z,20.81
2017-07-11T06:41:29.077Z,20.83
2017-07-11T06:42:29.103Z,20.89
2017-07-11T06:43:29.152Z,20.96
2017-07-11T06:44:29.186Z,21.06
2017-07-11T06:45:29.235Z,20.99
2017-07-11T06:46:29.274Z,21.02
2017-07-11T06:47:29.318Z,21.16
2017-07-11T06:48:29.349Z,21.14
2017-07-11T06:49:29.395Z,21.27
2017-07-11T06:50:29.428Z,21.35
2017-07-11T06:51:29.473Z,21.3
2017-07-11T06:52:29.524Z,21.38
2017-07-11T06:53:29.557Z,21.41
2017-07-11T06:54:29.592Z,21.46
2017-07-11T06:55:29.640Z,21.51
2017-07-11T06:56:29.683Z,21.61
2017-07-11T06:57:29.731Z,21.61
2017-07-11T06:58:29.762Z,21.66
2017-07-11T06:59:29.799Z,21.66
2017-07-11T07:00:29.854Z,21.63
2017-07-11T07:01:29.892Z,21.63
2017-07-11T07:02:29.926Z,21.64
2017-07-11T07:03:29.964Z,21.75
2017-07-11T07:04:30.004Z,21.75
2017-07-11T07:05:30.054Z,21.88
2017-07-11T07:06:30.094Z,21.79
2017-07-11T07:07:30.127Z,21.82
2017-07-11T07:08:30.169Z,21.94
2017-07-11T07:09:30.217Z,21.91
2017-07-11T07:10:30.252Z,21.99
2017-07-11T07:11:30.307Z,22.04
2017-07-11T07:12:30.344Z,22.07
2017-07-11T07:13:30.389Z,22.13
2017-07-11T07:14:30.427Z,22.16
2017-07-11T07:15:30.468Z,22.25
2017-07-11T07:16:30.510Z,22.19
2017-07-11T07:17:30.546Z,22.19
2017-07-11T07:18:30.585Z,22.2
2017-07-11T07:19:30.637Z,22.22
2017-07-11T07:20:30.667Z,22.19
2017-07-11T07:21:30.718Z,22.16
2017-07-11T07:22:30.758Z,22.17
2017-07-11T07:23:30.801Z,22.17
2017-07-11T07:24:30.836Z,22.14
2017-07-11T07:25:30.878Z,22.22
2017-07-11T07:26:30.923Z,22.29
2017-07-11T07:27:30.958Z,22.28
2017-07-11T07:28:31.009Z,22.32
2017-07-11T07:29:31.049Z,22.37
2017-07-11T07:30:31.097Z,22.28
2017-07-11T07:31:31.134Z,22.35
2017-07-11T07:32:31.222Z,22.39
2017-07-11T07:33:31.210Z,22.46
2017-07-11T07:34:31.250Z,22.49
2017-07-11T07:35:31.293Z,22.56
2017-07-11T07:36:31.345Z,22.62
2017-07-11T07:37:31.378Z,22.64
2017-07-11T07:38:31.441Z,22.57
2017-07-11T07:39:31.464Z,22.59
2017-07-11T07:40:31.511Z,22.57
2017-07-11T07:41:31.551Z,22.46
2017-07-11T07:42:31.913Z,22.46
2017-07-11T07:43:31.636Z,22.43
2017-07-11T07:44:31.670Z,22.47
2017-07-11T07:45:31.719Z,22.47
2017-07-11T07:46:31.760Z,22.49
2017-07-11T07:47:31.797Z,22.43
2017-07-11T07:48:31.840Z,22.5
2017-07-11T07:49:31.888Z,22.38
2017-07-11T07:50:31.929Z,22.41
2017-07-11T07:51:31.963Z,22.41
2017-07-11T07:52:32.011Z,22.41
2017-07-11T07:53:32.053Z,22.41
2017-07-11T07:54:32.090Z,22.29
2017-07-11T07:55:32.453Z,22.39
2017-07-11T07:56:32.179Z,22.37
2017-07-11T07:57:32.215Z,22.29
2017-07-11T07:58:32.262Z,22.25
2017-07-11T07:59:32.296Z,22.22
2017-07-11T08:00:32.344Z,22.1
2017-07-11T08:01:32.379Z,22.06
2017-07-11T08:02:32.427Z,22.02
2017-07-11T08:03:32.463Z,21.99
2017-07-11T08:04:32.502Z,22.02
2017-07-11T08:05:32.553Z,21.95
2017-07-11T08:06:32.594Z,22.04
2017-07-11T08:07:32.629Z,21.94
2017-07-11T08:08:32.674Z,21.97
2017-07-11T08:09:32.709Z,21.92
2017-07-11T08:10:32.757Z,21.95
2017-07-11T08:11:32.798Z,21.94
2017-07-11T08:12:32.835Z,21.88
2017-07-11T08:13:32.883Z,21.95
2017-07-11T08:14:33.231Z,21.95
2017-07-11T08:15:32.955Z,21.95
2017-07-11T08:16:32.998Z,21.91
2017-07-11T08:17:33.055Z,21.91
2017-07-11T08:18:33.085Z,22.01
2017-07-11T08:19:33.130Z,21.98
2017-07-11T08:20:33.163Z,21.97
2017-07-11T08:21:33.205Z,21.97
2017-07-11T08:22:33.253Z,22.02
2017-07-11T08:23:33.294Z,21.99
2017-07-11T08:24:33.330Z,22.02
2017-07-11T08:25:33.369Z,22.06
2017-07-11T08:26:33.417Z,22.06
2017-07-11T08:27:33.455Z,22.1
2017-07-11T08:28:33.500Z,22.07
2017-07-11T08:29:33.543Z,22.04
2017-07-11T08:30:33.575Z,22.07
2017-07-11T08:31:33.625Z,22.02
2017-07-11T08:32:33.668Z,22.02
2017-07-11T08:33:33.701Z,21.98
2017-07-11T08:34:33.742Z,21.95
2017-07-11T08:35:33.783Z,21.88
2017-07-11T08:36:33.831Z,21.97
2017-07-11T08:37:33.885Z,21.98
2017-07-11T08:38:33.914Z,22.01
2017-07-11T08:39:33.956Z,21.94
2017-07-11T08:40:34.117Z,21.88
2017-07-11T08:41:34.041Z,21.85
2017-07-11T08:42:34.076Z,21.97
2017-07-11T08:43:34.120Z,21.9
2017-07-11T08:44:34.157Z,21.92
2017-07-11T08:45:34.208Z,21.9
2017-07-11T08:46:34.239Z,21.81
2017-07-11T08:47:34.288Z,21.81
2017-07-11T08:48:34.322Z,21.94
2017-07-11T08:49:34.371Z,21.91
2017-07-11T08:50:34.413Z,22.06
2017-07-11T08:51:34.447Z,21.95
2017-07-11T08:52:34.500Z,21.92
2017-07-11T08:53:34.534Z,22.01
2017-07-11T08:54:34.576Z,22.01
2017-07-11T08:55:34.613Z,22.04
2017-07-11T08:56:34.664Z,22.07
2017-07-11T08:57:34.702Z,22.07
2017-07-11T08:58:34.740Z,22.01
2017-07-11T08:59:34.787Z,21.98
2017-07-11T09:00:34.822Z,21.99
2017-07-11T09:01:34.867Z,22.01
2017-07-11T09:02:34.911Z,22.09
2017-07-11T09:03:34.950Z,22.12
2017-07-11T09:04:34.988Z,22.13
2017-07-11T09:05:35.028Z,22.22
2017-07-11T09:06:35.071Z,22.22
2017-07-11T09:07:35.122Z,22.25
2017-07-11T09:08:35.158Z,22.28
2017-07-11T09:09:35.201Z,22.28
2017-07-11T09:10:35.237Z,22.38
2017-07-11T09:11:35.286Z,22.37
2017-07-11T09:12:35.325Z,22.41
2017-07-11T09:13:35.361Z,22.43
2017-07-11T09:14:35.410Z,22.46
2017-07-11T09:15:35.445Z,22.53
2017-07-11T09:16:35.494Z,22.6
2017-07-11T09:17:35.531Z,22.67
2017-07-11T09:18:35.572Z,22.65
2017-07-11T09:19:35.620Z,22.62
2017-07-11T09:20:35.978Z,22.75
2017-07-11T09:21:35.702Z,22.93
2017-07-11T09:22:35.752Z,22.96
2017-07-11T09:23:35.784Z,23.08
2017-07-11T09:24:35.834Z,23.04
2017-07-11T09:25:35.869Z,23.12
2017-07-11T09:26:35.917Z,23.09
2017-07-11T09:27:35.953Z,23.22
2017-07-11T09:28:35.996Z,23.22
2017-07-11T09:29:36.043Z,23.27
2017-07-11T09:30:36.081Z,23.14
2017-07-11T09:31:36.122Z,23.23
2017-07-11T09:32:36.172Z,23.19
2017-07-11T09:33:36.210Z,23.24
2017-07-11T09:34:36.565Z,23.27
2017-07-11T09:35:36.292Z,23.31
2017-07-11T09:36:36.336Z,23.22
2017-07-11T09:37:36.386Z,23.2
2017-07-11T09:38:36.429Z,23.12
2017-07-11T09:39:36.465Z,23.23
2017-07-11T09:40:36.513Z,23.22
2017-07-11T09:41:36.556Z,23.15
2017-07-11T09:42:36.591Z,23.17
2017-07-11T09:43:36.633Z,23.26
2017-07-11T09:44:36.677Z,23.23
2017-07-11T09:45:36.719Z,23.26
2017-07-11T09:46:36.765Z,23.39
2017-07-11T09:47:36.805Z,23.38
2017-07-11T09:48:36.864Z,23.35
2017-07-11T09:49:36.897Z,23.38
2017-07-11T09:50:36.937Z,23.42
2017-07-11T09:51:36.976Z,23.4
2017-07-11T09:52:37.031Z,23.47
2017-07-11T09:53:37.068Z,23.47
2017-07-11T09:54:37.105Z,23.49
2017-07-11T09:55:37.146Z,23.55
2017-07-11T09:56:37.198Z,23.67
2017-07-11T09:57:37.239Z,23.75
2017-07-11T09:58:37.281Z,23.8
2017-07-11T09:59:37.327Z,23.9
2017-07-11T10:00:37.363Z,23.89
2017-07-11T10:01:37.410Z,24.05
2017-07-11T10:02:37.509Z,24.19
2017-07-11T10:03:37.493Z,24.27
2017-07-11T10:04:37.535Z,24.26
2017-07-11T10:05:37.588Z,24.26
2017-07-11T10:06:37.628Z,24.32
2017-07-11T10:07:37.674Z,24.35
2017-07-11T10:08:37.710Z,24.37
2017-07-11T10:09:37.761Z,24.44
2017-07-11T10:10:37.796Z,24.5
2017-07-11T10:11:37.849Z,24.56
2017-07-11T10:12:37.883Z,24.64
2017-07-11T10:13:37.937Z,24.64
2017-07-11T10:14:37.986Z,24.73
2017-07-11T10:15:38.016Z,24.75
2017-07-11T10:16:38.066Z,24.79
2017-07-11T10:17:38.112Z,24.79
2017-07-11T10:18:38.156Z,24.9
2017-07-11T10:19:38.206Z,24.88
2017-07-11T10:20:38.235Z,25.01
2017-07-11T10:21:38.286Z,25.1
2017-07-11T10:22:38.333Z,25.27
2017-07-11T10:23:38.373Z,25.35
2017-07-11T10:24:38.427Z,25.44
2017-07-11T10:25:38.466Z,25.68
2017-07-11T10:26:38.517Z,25.98
2017-07-11T10:27:38.560Z,26.08
2017-07-11T10:28:38.606Z,26.37
2017-07-11T10:29:38.659Z,26.5
2017-07-11T10:30:38.701Z,26.57
2017-07-11T10:31:38.754Z,26.77
2017-07-11T10:32:38.801Z,26.92
2017-07-11T10:33:38.843Z,27.11
2017-07-11T10:34:38.892Z,27.24
2017-07-11T10:35:38.948Z,27.29
2017-07-11T10:36:38.992Z,27.35
2017-07-11T10:37:39.036Z,27.43
2017-07-11T10:38:39.094Z,27.57
2017-07-11T10:39:39.142Z,27.61
2017-07-11T10:40:39.191Z,27.66
2017-07-11T10:41:39.233Z,27.79
2017-07-11T10:42:39.281Z,27.89
2017-07-11T10:43:39.333Z,28.11
2017-07-11T10:44:39.388Z,28.26
2017-07-11T10:45:39.432Z,28.29
2017-07-11T10:46:39.490Z,28.48
2017-07-11T10:47:39.531Z,28.5
2017-07-11T10:48:39.594Z,28.51
2017-07-11T10:49:39.643Z,28.5
2017-07-11T10:50:39.698Z,28.5
2017-07-11T10:51:39.748Z,28.51
2017-07-11T10:52:39.801Z,28.63
2017-07-11T10:53:39.851Z,28.68
2017-07-11T10:54:39.900Z,28.6
2017-07-11T10:55:39.959Z,28.65
2017-07-11T10:56:40.006Z,28.58
2017-07-11T10:57:40.063Z,28.35
2017-07-11T10:58:40.110Z,28.28
2017-07-11T10:59:40.162Z,28.1
2017-07-11T11:00:40.218Z,27.92
2017-07-11T11:01:40.265Z,27.82
2017-07-11T11:02:40.317Z,27.77
2017-07-11T11:03:40.365Z,27.74
2017-07-11T11:04:40.425Z,27.69
2017-07-11T11:05:40.475Z,27.58
2017-07-11T11:06:40.527Z,27.58
2017-07-11T11:07:40.579Z,27.43
2017-07-11T11:08:40.630Z,27.36
2017-07-11T11:09:40.679Z,27.26
2017-07-11T11:10:40.729Z,27.28
2017-07-11T11:11:40.780Z,27.23
2017-07-11T11:12:40.828Z,27.28
2017-07-11T11:13:40.871Z,27.32
2017-07-11T11:14:40.921Z,27.31
2017-07-11T11:15:40.977Z,27.23
2017-07-11T11:16:41.031Z,27.19
2017-07-11T11:17:41.077Z,27.09
2017-07-11T11:18:41.124Z,27.14
2017-07-11T11:19:41.167Z,27.1
2017-07-11T11:20:41.218Z,27.04
2017-07-11T11:21:41.269Z,27.21
2017-07-11T11:22:41.309Z,27.24
2017-07-11T11:23:41.358Z,27.29
2017-07-11T11:24:41.405Z,27.32
2017-07-11T11:25:41.458Z,27.29
2017-07-11T11:26:41.504Z,27.28
2017-07-11T11:27:41.544Z,27.35
2017-07-11T11:28:41.602Z,27.29
2017-07-11T11:29:41.641Z,27.11
2017-07-11T11:30:41.693Z,27.02
2017-07-11T11:31:41.731Z,26.96
2017-07-11T11:32:41.784Z,26.92
2017-07-11T11:33:41.824Z,26.87
2017-07-11T11:34:41.879Z,26.77
2017-07-11T11:35:41.923Z,26.76
2017-07-11T11:36:41.970Z,26.73
2017-07-11T11:37:42.009Z,26.73
2017-07-11T11:38:42.051Z,26.68
2017-07-11T11:39:42.101Z,26.58
2017-07-11T11:40:42.147Z,26.59
2017-07-11T11:41:42.210Z,26.54
2017-07-11T11:42:42.241Z,26.59
2017-07-11T11:43:42.280Z,26.55
2017-07-11T11:44:42.333Z,26.54
2017-07-11T11:45:42.373Z,26.55
2017-07-11T11:46:42.419Z,26.59
2017-07-11T11:47:42.469Z,26.61
2017-07-11T11:48:42.509Z,26.62
2017-07-11T11:49:42.552Z,26.73
2017-07-11T11:50:42.608Z,26.73
2017-07-11T11:51:42.650Z,26.58
2017-07-11T11:52:43.009Z,26.69
2017-07-11T11:53:42.745Z,26.79
2017-07-11T11:54:42.784Z,26.76
2017-07-11T11:55:42.827Z,26.81
2017-07-11T11:56:42.878Z,26.92
2017-07-11T11:57:42.923Z,26.99
2017-07-11T11:58:42.960Z,26.96
2017-07-11T11:59:43.016Z,26.98
2017-07-11T12:00:43.060Z,26.94
2017-07-11T12:01:43.126Z,26.92
2017-07-11T12:02:43.140Z,26.83
2017-07-11T12:03:43.188Z,26.79
2017-07-11T12:04:43.237Z,26.81
2017-07-11T12:05:43.284Z,26.76
2017-07-11T12:06:43.332Z,26.79
2017-07-11T12:07:43.366Z,26.79
2017-07-11T12:08:43.414Z,26.76
2017-07-11T12:09:43.457Z,26.77
2017-07-11T12:10:43.512Z,26.74
2017-07-11T12:11:43.553Z,26.73
2017-07-11T12:12:43.591Z,26.76
2017-07-11T12:13:43.637Z,26.72
2017-07-11T12:14:43.681Z,26.73
2017-07-11T12:15:43.733Z,26.8
2017-07-11T12:16:43.778Z,26.81
2017-07-11T12:17:43.822Z,26.86
2017-07-11T12:18:43.867Z,26.92
2017-07-11T12:19:43.905Z,26.89
2017-07-11T12:20:43.951Z,26.84
2017-07-11T12:21:44.000Z,26.8
2017-07-11T12:22:44.047Z,26.83
2017-07-11T12:23:44.092Z,26.76
2017-07-11T12:24:44.134Z,26.74
2017-07-11T12:25:44.173Z,26.72
2017-07-11T12:26:44.224Z,26.72
2017-07-11T12:27:44.277Z,26.69
2017-07-11T12:28:44.314Z,26.62
2017-07-11T12:29:44.359Z,26.72
2017-07-11T12:30:44.395Z,26.68
2017-07-11T12:31:44.442Z,26.77
2017-07-11T12:32:44.491Z,26.72
2017-07-11T12:33:44.535Z,26.72
2017-07-11T12:34:44.577Z,26.74
2017-07-11T12:35:44.619Z,26.72
2017-07-11T12:36:44.669Z,26.86
2017-07-11T12:37:44.706Z,26.8
2017-07-11T12:38:44.757Z,26.91
2017-07-11T12:39:44.806Z,26.98
2017-07-11T12:40:44.845Z,27.01
2017-07-11T12:41:44.892Z,26.92
2017-07-11T12:42:44.930Z,27.01
2017-07-11T12:43:44.981Z,27.13
2017-07-11T12:44:45.018Z,27.1
2017-07-11T12:45:45.069Z,27.11
2017-07-11T12:46:45.114Z,27.2
2017-07-11T12:47:45.153Z,27.19
2017-07-11T12:48:45.205Z,27.26
2017-07-11T12:49:45.241Z,27.13
2017-07-11T12:50:45.295Z,27.14
2017-07-11T12:51:45.336Z,27.14
2017-07-11T12:52:45.381Z,27.06
2017-07-11T12:53:45.426Z,27.11
2017-07-11T12:54:45.463Z,27.1
2017-07-11T12:55:45.537Z,27.11